F/V Cote D'ambre — FPEY — position and weather

sailwx.info

Track history (hours):
 
Tides and Currents Weather Stations Pressure Air Temp Water Temp Dewpoint Dewpoint Depression Visibility Wind Speed Wind Dir Waves Ship Positions

F/V Cote D'ambre

Last reported at 2017-Dec-09 04:21 UTC. Time now 2017-Dec-14 02:30 UTC.
Position N 47°44' W 003°22'.

Length 16 m; draft 4 m.

Type: Fishing. MMSI: 227128800.

Date/timePositionNaut miles runAvg speedWind from/ knotsBaromVisibWave heightAir tempDewpointWater temp
2017-Dec-09 04:21N 47°44' W 003°22'0 0.2
2017-Dec-09 03:58N 47°44' W 003°22'0 0.4
2017-Dec-09 03:30N 47°44' W 003°22'0 0.0
2017-Dec-09 03:00N 47°44' W 003°22'0 0.0
2017-Dec-09 02:30N 47°44' W 003°22'0 0.0
2017-Dec-09 02:00N 47°44' W 003°22'3 5.9
2017-Dec-09 01:30N 47°41' W 003°24'4 8.5
2017-Dec-09 01:00N 47°40' W 003°30'4 8.0
2017-Dec-09 00:30N 47°37' W 003°34'4 8.1
2017-Dec-09 00:00N 47°34' W 003°38'4 8.1
2017-Dec-08 23:30N 47°30' W 003°41'4 7.9
2017-Dec-08 23:00N 47°27' W 003°45'4 7.0
2017-Dec-08 22:30N 47°24' W 003°47'12 1.8
2017-Dec-08 15:48N 47°14' W 003°38'1 3.3
2017-Dec-08 15:24N 47°15' W 003°37'2 3.3
2017-Dec-08 14:55N 47°16' W 003°36'2 2.9
2017-Dec-08 14:03N 47°16' W 003°32'0 2.6
2017-Dec-08 13:55N 47°16' W 003°32'0 0.8
2017-Dec-08 13:30N 47°16' W 003°32'2 3.3
2017-Dec-08 12:58N 47°15' W 003°34'2 3.2
2017-Dec-08 12:29N 47°14' W 003°36'6 0.2
2017-Dec-07 06:51N 47°21' W 003°33'2 6.7
2017-Dec-07 06:30N 47°23' W 003°32'3 6.6
2017-Dec-07 06:00N 47°26' W 003°29'3 6.4
2017-Dec-07 05:30N 47°28' W 003°27'3 6.5
2017-Dec-07 05:00N 47°31' W 003°25'3 6.6
2017-Dec-07 04:30N 47°34' W 003°23'3 6.5
2017-Dec-07 04:00N 47°37' W 003°22'3 6.9
2017-Dec-07 03:30N 47°41' W 003°22'3 5.9
2017-Dec-07 03:00N 47°44' W 003°22'0 0.0
2017-Dec-07 02:30N 47°44' W 003°22'1 2.4
2017-Dec-07 02:01N 47°43' W 003°22'4 8.9
2017-Dec-07 01:30N 47°38' W 003°22'4 8.4
2017-Dec-07 01:00N 47°34' W 003°24'4 8.6
2017-Dec-07 00:30N 47°30' W 003°27'4 8.4
2017-Dec-07 00:00N 47°27' W 003°30'4 8.4
2017-Dec-06 23:31N 47°23' W 003°32'3 6.3
2017-Dec-06 23:00N 47°20' W 003°35'1 2.5
2017-Dec-06 22:30N 47°20' W 003°37'1 2.9
2017-Dec-06 22:00N 47°19' W 003°39'3 3.1
2017-Dec-06 21:08N 47°18' W 003°42'0 3.2
2017-Dec-06 20:58N 47°17' W 003°43'  
2017-Dec-04 06:00N 47°10' W 003°20'5 9.2
2017-Dec-04 05:30N 47°15' W 003°21'5 9.2
2017-Dec-04 05:00N 47°20' W 003°21'5 9.2
2017-Dec-04 04:30N 47°24' W 003°21'5 9.1
2017-Dec-04 04:00N 47°29' W 003°21'4 9.0
2017-Dec-04 03:30N 47°33' W 003°22'4 8.9
2017-Dec-04 03:00N 47°38' W 003°22'4 8.9
2017-Dec-04 02:30N 47°42' W 003°22'27 0.6
2017-Dec-02 06:57N 47°15' W 003°25'4 8.9
2017-Dec-02 06:30N 47°19' W 003°24'5 9.0
2017-Dec-02 06:00N 47°23' W 003°24'5 9.2
2017-Dec-02 05:30N 47°28' W 003°23'5 9.1
2017-Dec-02 05:00N 47°32' W 003°23'5 9.2
2017-Dec-02 04:30N 47°37' W 003°22'5 9.3
2017-Dec-02 04:00N 47°42' W 003°22'2 4.0
2017-Dec-02 03:29N 47°44' W 003°22'0 0.0
2017-Dec-02 01:25N 47°44' W 003°22'0 0.2
2017-Dec-02 00:58N 47°44' W 003°22'0 0.0
2017-Dec-02 00:28N 47°44' W 003°22'2 4.7
2017-Dec-02 00:00N 47°42' W 003°22'4 8.0
2017-Dec-01 23:30N 47°38' W 003°22'4 8.0
2017-Dec-01 23:00N 47°34' W 003°24'4 8.2
2017-Dec-01 22:30N 47°30' W 003°27'4 7.9
2017-Dec-01 22:00N 47°27' W 003°31'4 7.6
2017-Dec-01 21:30N 47°24' W 003°35'4 7.6
2017-Dec-01 21:00N 47°21' W 003°38'1 2.6
2017-Dec-01 20:29N 47°20' W 003°38'2 3.2
2017-Dec-01 19:59N 47°19' W 003°39'2 3.3
2017-Dec-01 19:30N 47°17' W 003°39'5 0.7
2017-Dec-01 13:06N 47°14' W 003°33'2 1.3
2017-Dec-01 11:49N 47°15' W 003°35'1 3.5
2017-Dec-01 11:28N 47°16' W 003°35'2 3.7
2017-Dec-01 10:59N 47°18' W 003°35'4 7.5
2017-Dec-01 10:30N 47°22' W 003°33'6 2.0
2017-Dec-01 07:39N 47°25' W 003°26'1 3.5
2017-Dec-01 07:30N 47°25' W 003°27'2 3.5
2017-Dec-01 07:00N 47°25' W 003°30'3 5.9
2017-Dec-01 06:30N 47°28' W 003°28'4 7.8
2017-Dec-01 06:00N 47°31' W 003°25'4 7.8
2017-Dec-01 05:30N 47°35' W 003°23'4 8.0
2017-Dec-01 05:00N 47°39' W 003°22'4 8.5
2017-Dec-01 04:30N 47°43' W 003°22'1 1.6
2017-Dec-01 03:59N 47°44' W 003°22'0 0.0
2017-Dec-01 03:29N 47°44' W 003°22'0 0.0
2017-Dec-01 02:59N 47°44' W 003°22'0 0.0
2017-Dec-01 02:29N 47°44' W 003°22'0 0.0
2017-Dec-01 01:59N 47°44' W 003°22'0 0.0
2017-Dec-01 01:29N 47°44' W 003°22'2 4.6
2017-Dec-01 01:01N 47°42' W 003°22'4 7.9
2017-Dec-01 00:31N 47°38' W 003°22'4 7.8
2017-Dec-01 00:01N 47°34' W 003°23'4 7.8
2017-Nov-30 23:30N 47°30' W 003°25'4 7.8
2017-Nov-30 23:01N 47°27' W 003°27'4 7.7
2017-Nov-30 22:30N 47°23' W 003°29'4 7.6
2017-Nov-30 22:00N 47°19' W 003°30'4 7.6
2017-Nov-30 21:27N 47°15' W 003°32'1 2.0
2017-Nov-30 20:59N 47°15' W 003°33'4 0.1
2017-Nov-29 07:41N 47°12' W 003°28'4 3.8
2017-Nov-29 06:45N 47°15' W 003°29'2 7.9
2017-Nov-29 06:29N 47°17' W 003°28'4 7.9
2017-Nov-29 06:00N 47°21' W 003°27'4 8.1
2017-Nov-29 05:30N 47°25' W 003°25'4 8.3
2017-Nov-29 05:00N 47°29' W 003°24'4 8.4
2017-Nov-29 04:30N 47°33' W 003°23'  
Track history (hours):
 
Tides and Currents Weather Stations Pressure Air Temp Water Temp Dewpoint Dewpoint Depression Visibility Wind Speed Wind Dir Waves Ship Positions

F/V Cote D'ambre

Last reported at 2017-Dec-09 04:21 UTC. Time now 2017-Dec-14 02:30 UTC.
Position N 47°44' W 003°22'.

Length 16 m; draft 4 m.

Type: Fishing. MMSI: 227128800.

Date/timePositionNaut miles runAvg speedWind from/ knotsBaromVisibWave heightAir tempDewpointWater temp
2017-Dec-09 04:21N 47°44' W 003°22'0 0.2
2017-Dec-09 03:58N 47°44' W 003°22'0 0.4
2017-Dec-09 03:30N 47°44' W 003°22'0 0.0
2017-Dec-09 03:00N 47°44' W 003°22'0 0.0
2017-Dec-09 02:30N 47°44' W 003°22'0 0.0
2017-Dec-09 02:00N 47°44' W 003°22'3 5.9
2017-Dec-09 01:30N 47°41' W 003°24'4 8.5
2017-Dec-09 01:00N 47°40' W 003°30'4 8.0
2017-Dec-09 00:30N 47°37' W 003°34'4 8.1
2017-Dec-09 00:00N 47°34' W 003°38'4 8.1
2017-Dec-08 23:30N 47°30' W 003°41'4 7.9
2017-Dec-08 23:00N 47°27' W 003°45'4 7.0
2017-Dec-08 22:30N 47°24' W 003°47'12 1.8
2017-Dec-08 15:48N 47°14' W 003°38'1 3.3
2017-Dec-08 15:24N 47°15' W 003°37'2 3.3
2017-Dec-08 14:55N 47°16' W 003°36'2 2.9
2017-Dec-08 14:03N 47°16' W 003°32'0 2.6
2017-Dec-08 13:55N 47°16' W 003°32'0 0.8
2017-Dec-08 13:30N 47°16' W 003°32'2 3.3
2017-Dec-08 12:58N 47°15' W 003°34'2 3.2
2017-Dec-08 12:29N 47°14' W 003°36'6 0.2
2017-Dec-07 06:51N 47°21' W 003°33'2 6.7
2017-Dec-07 06:30N 47°23' W 003°32'3 6.6
2017-Dec-07 06:00N 47°26' W 003°29'3 6.4
2017-Dec-07 05:30N 47°28' W 003°27'3 6.5
2017-Dec-07 05:00N 47°31' W 003°25'3 6.6
2017-Dec-07 04:30N 47°34' W 003°23'3 6.5
2017-Dec-07 04:00N 47°37' W 003°22'3 6.9
2017-Dec-07 03:30N 47°41' W 003°22'3 5.9
2017-Dec-07 03:00N 47°44' W 003°22'0 0.0
2017-Dec-07 02:30N 47°44' W 003°22'1 2.4
2017-Dec-07 02:01N 47°43' W 003°22'4 8.9
2017-Dec-07 01:30N 47°38' W 003°22'4 8.4
2017-Dec-07 01:00N 47°34' W 003°24'4 8.6
2017-Dec-07 00:30N 47°30' W 003°27'4 8.4
2017-Dec-07 00:00N 47°27' W 003°30'4 8.4
2017-Dec-06 23:31N 47°23' W 003°32'3 6.3
2017-Dec-06 23:00N 47°20' W 003°35'1 2.5
2017-Dec-06 22:30N 47°20' W 003°37'1 2.9
2017-Dec-06 22:00N 47°19' W 003°39'3 3.1
2017-Dec-06 21:08N 47°18' W 003°42'0 3.2
2017-Dec-06 20:58N 47°17' W 003°43'  
2017-Dec-04 06:00N 47°10' W 003°20'5 9.2
2017-Dec-04 05:30N 47°15' W 003°21'5 9.2
2017-Dec-04 05:00N 47°20' W 003°21'5 9.2
2017-Dec-04 04:30N 47°24' W 003°21'5 9.1
2017-Dec-04 04:00N 47°29' W 003°21'4 9.0
2017-Dec-04 03:30N 47°33' W 003°22'4 8.9
2017-Dec-04 03:00N 47°38' W 003°22'4 8.9
2017-Dec-04 02:30N 47°42' W 003°22'27 0.6
2017-Dec-02 06:57N 47°15' W 003°25'4 8.9
2017-Dec-02 06:30N 47°19' W 003°24'5 9.0
2017-Dec-02 06:00N 47°23' W 003°24'5 9.2
2017-Dec-02 05:30N 47°28' W 003°23'5 9.1
2017-Dec-02 05:00N 47°32' W 003°23'5 9.2
2017-Dec-02 04:30N 47°37' W 003°22'5 9.3
2017-Dec-02 04:00N 47°42' W 003°22'2 4.0
2017-Dec-02 03:29N 47°44' W 003°22'0 0.0
2017-Dec-02 01:25N 47°44' W 003°22'0 0.2
2017-Dec-02 00:58N 47°44' W 003°22'0 0.0
2017-Dec-02 00:28N 47°44' W 003°22'2 4.7
2017-Dec-02 00:00N 47°42' W 003°22'4 8.0
2017-Dec-01 23:30N 47°38' W 003°22'4 8.0
2017-Dec-01 23:00N 47°34' W 003°24'4 8.2
2017-Dec-01 22:30N 47°30' W 003°27'4 7.9
2017-Dec-01 22:00N 47°27' W 003°31'4 7.6
2017-Dec-01 21:30N 47°24' W 003°35'4 7.6
2017-Dec-01 21:00N 47°21' W 003°38'1 2.6
2017-Dec-01 20:29N 47°20' W 003°38'2 3.2
2017-Dec-01 19:59N 47°19' W 003°39'2 3.3
2017-Dec-01 19:30N 47°17' W 003°39'5 0.7
2017-Dec-01 13:06N 47°14' W 003°33'2 1.3
2017-Dec-01 11:49N 47°15' W 003°35'1 3.5
2017-Dec-01 11:28N 47°16' W 003°35'2 3.7
2017-Dec-01 10:59N 47°18' W 003°35'4 7.5
2017-Dec-01 10:30N 47°22' W 003°33'6 2.0
2017-Dec-01 07:39N 47°25' W 003°26'1 3.5
2017-Dec-01 07:30N 47°25' W 003°27'2 3.5
2017-Dec-01 07:00N 47°25' W 003°30'3 5.9
2017-Dec-01 06:30N 47°28' W 003°28'4 7.8
2017-Dec-01 06:00N 47°31' W 003°25'4 7.8
2017-Dec-01 05:30N 47°35' W 003°23'4 8.0
2017-Dec-01 05:00N 47°39' W 003°22'4 8.5
2017-Dec-01 04:30N 47°43' W 003°22'1 1.6
2017-Dec-01 03:59N 47°44' W 003°22'0 0.0
2017-Dec-01 03:29N 47°44' W 003°22'0 0.0
2017-Dec-01 02:59N 47°44' W 003°22'0 0.0
2017-Dec-01 02:29N 47°44' W 003°22'0 0.0
2017-Dec-01 01:59N 47°44' W 003°22'0 0.0
2017-Dec-01 01:29N 47°44' W 003°22'2 4.6
2017-Dec-01 01:01N 47°42' W 003°22'4 7.9
2017-Dec-01 00:31N 47°38' W 003°22'4 7.8
2017-Dec-01 00:01N 47°34' W 003°23'4 7.8
2017-Nov-30 23:30N 47°30' W 003°25'4 7.8
2017-Nov-30 23:01N 47°27' W 003°27'4 7.7
2017-Nov-30 22:30N 47°23' W 003°29'4 7.6
2017-Nov-30 22:00N 47°19' W 003°30'4 7.6
2017-Nov-30 21:27N 47°15' W 003°32'1 2.0
2017-Nov-30 20:59N 47°15' W 003°33'4 0.1
2017-Nov-29 07:41N 47°12' W 003°28'4 3.8
2017-Nov-29 06:45N 47°15' W 003°29'2 7.9
2017-Nov-29 06:29N 47°17' W 003°28'4 7.9
2017-Nov-29 06:00N 47°21' W 003°27'4 8.1
2017-Nov-29 05:30N 47°25' W 003°25'4 8.3
2017-Nov-29 05:00N 47°29' W 003°24'4 8.4
2017-Nov-29 04:30N 47°33' W 003°23'  

Dump ship's entire track history